createdAt,value
2023-04-29T00:00:48.359Z,4.11
2023-04-29T00:05:56.712Z,4.11
2023-04-29T00:11:04.990Z,4.10
2023-04-29T00:16:12.203Z,4.04
2023-04-29T00:21:18.952Z,4.06
2023-04-29T00:26:26.989Z,3.99
2023-04-29T00:31:33.453Z,3.95
2023-04-29T00:36:40.274Z,3.98
2023-04-29T00:41:49.025Z,4.03
2023-04-29T00:46:55.455Z,4.10
2023-04-29T00:52:02.395Z,4.10
2023-04-29T00:57:10.482Z,4.15
2023-04-29T01:02:18.806Z,4.23
2023-04-29T01:07:36.629Z,4.16
2023-04-29T01:12:55.919Z,4.22
2023-04-29T01:18:06.714Z,4.31
2023-04-29T01:23:13.780Z,4.31
2023-04-29T01:28:42.491Z,4.06
2023-04-29T01:34:00.969Z,4.11
2023-04-29T01:39:16.567Z,4.20
2023-04-29T01:44:32.838Z,4.18
2023-04-29T01:49:40.094Z,4.04
2023-04-29T01:54:47.497Z,4.02
2023-04-29T01:59:55.763Z,4.11
2023-04-29T02:05:20.419Z,4.14
2023-04-29T02:10:35.636Z,4.20
2023-04-29T02:15:58.220Z,4.20
2023-04-29T02:21:05.948Z,4.20
2023-04-29T02:26:15.698Z,4.21
2023-04-29T02:31:23.578Z,4.17
2023-04-29T02:36:30.430Z,4.13
2023-04-29T02:41:36.664Z,4.14
2023-04-29T02:46:46.079Z,4.22
2023-04-29T02:51:52.299Z,4.27
2023-04-29T02:56:59.101Z,4.28
2023-04-29T03:02:06.974Z,4.33
2023-04-29T03:07:13.756Z,4.30
2023-04-29T03:12:20.565Z,4.26
2023-04-29T03:17:28.555Z,4.24
2023-04-29T03:22:37.925Z,4.15
2023-04-29T03:27:44.774Z,4.14
2023-04-29T03:32:53.149Z,4.15
2023-04-29T03:37:59.672Z,4.08
2023-04-29T03:43:11.383Z,4.05
2023-04-29T03:48:20.434Z,4.14
2023-04-29T03:53:28.387Z,4.29
2023-04-29T03:58:35.488Z,4.39
2023-04-29T04:03:44.525Z,4.54
2023-04-29T04:08:51.162Z,4.63
2023-04-29T04:14:02.593Z,4.73
2023-04-29T04:19:11.619Z,4.87
2023-04-29T04:24:22.508Z,5.00
2023-04-29T04:29:30.514Z,5.13
2023-04-29T04:34:41.600Z,5.21
2023-04-29T04:39:49.922Z,5.28
2023-04-29T04:44:56.546Z,5.40
2023-04-29T04:50:23.485Z,5.53
2023-04-29T04:55:33.871Z,5.62
2023-04-29T05:00:45.317Z,5.81
2023-04-29T05:05:57.412Z,6.04
2023-04-29T05:11:04.511Z,6.31
2023-04-29T05:16:11.132Z,6.56
2023-04-29T05:21:24.198Z,6.75
2023-04-29T05:26:30.588Z,6.94
2023-04-29T05:31:40.753Z,7.08
2023-04-29T05:36:49.353Z,7.20
2023-04-29T05:41:55.721Z,7.38
2023-04-29T05:47:14.924Z,7.49
2023-04-29T05:52:23.502Z,7.66
2023-04-29T05:57:30.836Z,7.89
2023-04-29T06:02:41.587Z,8.14
2023-04-29T06:07:57.173Z,8.27
2023-04-29T06:13:12.015Z,8.43
2023-04-29T06:18:18.743Z,8.53
2023-04-29T06:23:26.941Z,8.70
2023-04-29T06:28:33.887Z,8.78
2023-04-29T06:33:40.444Z,8.79
2023-04-29T06:38:48.522Z,8.85
2023-04-29T06:44:26.940Z,9.00
2023-04-29T06:49:44.106Z,9.18
2023-04-29T06:54:52.083Z,9.39
2023-04-29T06:59:58.540Z,9.67
2023-04-29T07:05:04.959Z,10.00
2023-04-29T07:10:13.349Z,10.19
2023-04-29T07:15:21.759Z,10.31
2023-04-29T07:20:29.759Z,10.44
2023-04-29T07:25:38.154Z,10.64
2023-04-29T07:30:46.640Z,10.73
2023-04-29T07:35:53.519Z,10.84
2023-04-29T07:41:02.103Z,10.89
2023-04-29T07:46:09.125Z,11.10
2023-04-29T07:51:16.426Z,11.33
2023-04-29T07:56:25.117Z,11.50
2023-04-29T08:01:31.842Z,11.66
2023-04-29T08:06:38.619Z,12.03
2023-04-29T08:11:47.038Z,12.22
2023-04-29T08:16:53.691Z,12.61
2023-04-29T08:22:01.409Z,12.84
2023-04-29T08:27:09.421Z,12.97
2023-04-29T08:32:16.348Z,12.88
2023-04-29T08:37:22.796Z,12.74
2023-04-29T08:42:37.286Z,12.74
2023-04-29T08:47:44.305Z,12.99
2023-04-29T08:52:52.283Z,13.29
2023-04-29T08:58:00.427Z,13.59
2023-04-29T09:03:19.703Z,13.86
2023-04-29T09:08:28.391Z,13.96
2023-04-29T09:13:36.242Z,14.14
2023-04-29T09:18:48.354Z,14.33
2023-04-29T09:23:56.112Z,14.42
2023-04-29T09:29:14.395Z,14.37
2023-04-29T09:34:32.154Z,14.40
2023-04-29T09:39:41.650Z,14.52
2023-04-29T09:44:49.690Z,14.68
2023-04-29T09:50:12.908Z,15.00
2023-04-29T09:55:19.509Z,15.14
2023-04-29T10:00:29.872Z,15.06
2023-04-29T10:05:36.363Z,15.22
2023-04-29T10:10:42.912Z,15.26
2023-04-29T10:16:01.777Z,15.32
2023-04-29T10:21:10.785Z,15.49
2023-04-29T10:26:18.435Z,15.63
2023-04-29T10:31:30.541Z,15.62
2023-04-29T10:36:39.090Z,15.81
2023-04-29T10:41:48.711Z,16.04
2023-04-29T10:47:23.568Z,16.01
2023-04-29T10:52:30.585Z,16.27
2023-04-29T10:57:38.416Z,16.30
2023-04-29T11:02:46.311Z,16.26
2023-04-29T11:08:13.331Z,16.30
2023-04-29T11:13:27.875Z,16.42
2023-04-29T11:18:36.588Z,16.46
2023-04-29T11:23:45.503Z,16.47
2023-04-29T11:28:53.521Z,16.46
2023-04-29T11:34:02.303Z,16.67
2023-04-29T11:39:09.821Z,16.79
2023-04-29T11:44:16.117Z,16.92
2023-04-29T11:49:29.250Z,17.16
2023-04-29T11:54:35.936Z,17.20
2023-04-29T11:59:45.056Z,17.55
2023-04-29T12:04:53.768Z,17.72
2023-04-29T12:10:01.065Z,-53.97
2023-04-29T12:15:11.724Z,17.86
2023-04-29T12:20:19.854Z,18.01
2023-04-29T12:25:30.372Z,18.12
2023-04-29T12:30:37.729Z,18.14
2023-04-29T12:35:45.934Z,18.06
2023-04-29T12:40:52.577Z,18.12
2023-04-29T12:46:04.944Z,18.11
2023-04-29T12:51:15.150Z,18.27
2023-04-29T12:56:22.043Z,18.35
2023-04-29T13:01:29.260Z,18.40
2023-04-29T13:06:45.236Z,18.30
2023-04-29T13:11:52.322Z,18.28
2023-04-29T13:16:58.924Z,18.23
2023-04-29T13:22:07.066Z,18.25
2023-04-29T13:27:13.793Z,18.23
2023-04-29T13:32:24.755Z,18.54
2023-04-29T13:37:33.106Z,18.66
2023-04-29T13:42:47.180Z,18.57
2023-04-29T13:48:07.662Z,18.40
2023-04-29T13:54:03.057Z,18.22
2023-04-29T13:59:36.141Z,18.09
2023-04-29T14:04:19.536Z,17.83
2023-04-29T14:09:27.972Z,17.76
2023-04-29T14:14:34.947Z,17.71
2023-04-29T14:19:42.014Z,17.80
2023-04-29T14:24:50.107Z,17.80
2023-04-29T14:29:57.821Z,17.80
2023-04-29T14:35:07.377Z,17.78
2023-04-29T14:40:18.429Z,17.77
2023-04-29T14:45:26.382Z,17.60
2023-04-29T14:50:32.936Z,17.47
2023-04-29T14:55:41.038Z,17.38
2023-04-29T15:00:48.160Z,17.33
2023-04-29T15:05:55.031Z,17.33
2023-04-29T15:11:03.169Z,17.38
2023-04-29T15:16:10.478Z,17.42
2023-04-29T15:21:17.380Z,17.37
2023-04-29T15:26:25.793Z,-146.03
2023-04-29T15:31:32.566Z,-146.03
2023-04-29T15:36:39.594Z,-146.03
2023-04-29T15:41:48.589Z,-146.03
2023-04-29T15:46:55.371Z,-146.03
2023-04-29T15:52:02.100Z,-146.03
2023-04-29T15:57:10.468Z,-146.03
2023-04-29T16:02:17.610Z,-146.03
2023-04-29T16:07:27.176Z,-146.03
2023-04-29T16:12:35.656Z,-146.03
2023-04-29T16:17:42.653Z,-146.03
2023-04-29T16:22:49.578Z,-146.03
2023-04-29T16:27:58.659Z,-146.03
2023-04-29T16:33:11.435Z,-146.03
2023-04-29T16:38:19.937Z,-146.03
2023-04-29T17:29:41.888Z,15.12
2023-04-29T17:34:49.922Z,15.04
2023-04-29T17:39:58.125Z,14.98
2023-04-29T17:45:07.785Z,14.85
2023-04-29T17:50:14.981Z,14.75
2023-04-29T17:55:23.452Z,14.65
2023-04-29T18:00:36.046Z,14.50
2023-04-29T18:05:47.424Z,14.43
2023-04-29T18:10:55.426Z,14.34
2023-04-29T18:16:06.078Z,14.27
2023-04-29T18:21:13.840Z,14.14
2023-04-29T18:26:21.749Z,14.06
2023-04-29T18:31:31.145Z,13.93
2023-04-29T18:36:38.050Z,13.83
2023-04-29T18:41:45.513Z,13.82
2023-04-29T18:46:55.856Z,13.72
2023-04-29T18:52:12.932Z,13.71
2023-04-29T18:57:29.549Z,13.66
2023-04-29T19:02:39.560Z,13.63
2023-04-29T19:07:48.476Z,13.60
2023-04-29T19:13:02.208Z,13.56
2023-04-29T19:19:09.327Z,13.50
2023-04-29T19:25:00.332Z,13.44
2023-04-29T19:30:36.507Z,13.37
2023-04-29T19:35:50.157Z,13.30
2023-04-29T19:40:59.122Z,13.22
2023-04-29T19:46:09.556Z,13.11
2023-04-29T19:51:20.953Z,13.10
2023-04-29T19:56:29.924Z,13.06
2023-04-29T20:01:39.438Z,13.01
2023-04-29T20:06:51.520Z,12.94
2023-04-29T20:11:59.823Z,12.92
2023-04-29T20:17:10.819Z,12.86
2023-04-29T20:22:20.570Z,12.80
2023-04-29T20:27:28.167Z,12.73
2023-04-29T20:32:35.233Z,12.68
2023-04-29T20:37:44.500Z,12.62
2023-04-29T20:42:51.511Z,12.58
2023-04-29T20:47:58.676Z,12.58
2023-04-29T20:53:08.516Z,12.53
2023-04-29T20:58:16.908Z,12.51
2023-04-29T21:03:23.605Z,12.49
2023-04-29T21:08:32.035Z,12.49
2023-04-29T21:13:38.916Z,12.48
2023-04-29T21:18:45.811Z,12.45
2023-04-29T21:23:53.756Z,12.44
2023-04-29T21:29:00.319Z,12.41
2023-04-29T21:34:07.574Z,12.38
2023-04-29T21:39:16.097Z,12.37
2023-04-29T21:44:23.377Z,12.33
2023-04-29T21:49:30.839Z,12.34
2023-04-29T21:54:39.413Z,12.32
2023-04-29T21:59:46.661Z,12.28
2023-04-29T22:04:54.572Z,12.25
2023-04-29T22:10:04.113Z,12.25
2023-04-29T22:15:24.662Z,12.22
2023-04-29T22:20:35.003Z,12.21
2023-04-29T22:25:43.141Z,12.18
2023-04-29T22:30:49.669Z,12.15
2023-04-29T22:35:56.328Z,12.15
2023-04-29T22:41:04.737Z,12.17
2023-04-29T22:46:12.001Z,12.16
2023-04-29T22:51:20.335Z,12.12
2023-04-29T22:56:29.249Z,12.10
2023-04-29T23:01:35.752Z,12.09
2023-04-29T23:06:42.442Z,12.06
2023-04-29T23:11:50.502Z,12.06
2023-04-29T23:16:57.031Z,12.03
2023-04-29T23:22:03.676Z,12.02
2023-04-29T23:27:11.784Z,11.97
2023-04-29T23:32:19.818Z,11.96
2023-04-29T23:37:27.539Z,11.92
2023-04-29T23:42:35.951Z,11.90
2023-04-29T23:47:42.452Z,11.86
2023-04-29T23:52:48.729Z,11.84
2023-04-29T23:58:06.990Z,11.78
